createdAt,value
2018-05-07T00:00:18.340Z,13.30
2018-05-07T00:02:46.716Z,13.20
2018-05-07T00:05:14.957Z,13.20
2018-05-07T00:07:44.023Z,13.10
2018-05-07T00:10:12.256Z,13.10
2018-05-07T00:12:40.512Z,13.00
2018-05-07T00:15:08.809Z,13.00
2018-05-07T00:17:37.089Z,13.00
2018-05-07T00:20:05.343Z,12.90
2018-05-07T00:22:33.609Z,12.90
2018-05-07T00:25:01.916Z,12.80
2018-05-07T00:27:30.159Z,12.80
2018-05-07T00:29:59.172Z,12.60
2018-05-07T00:32:27.467Z,12.60
2018-05-07T00:34:55.763Z,12.50
2018-05-07T00:37:24.042Z,12.50
2018-05-07T00:39:53.796Z,12.30
2018-05-07T00:42:22.036Z,12.30
2018-05-07T00:44:51.944Z,12.20
2018-05-07T00:47:20.943Z,12.10
2018-05-07T00:49:49.186Z,12.10
2018-05-07T00:52:17.427Z,12.00
2018-05-07T00:54:57.808Z,12.00
2018-05-07T00:57:26.084Z,11.90
2018-05-07T00:59:54.355Z,11.80
2018-05-07T01:02:22.648Z,11.80
2018-05-07T01:04:51.011Z,11.70
2018-05-07T01:07:19.283Z,11.60
2018-05-07T01:09:47.561Z,11.60
2018-05-07T01:12:15.884Z,11.60
2018-05-07T01:14:44.244Z,11.50
2018-05-07T01:17:12.598Z,11.50
2018-05-07T01:19:40.873Z,11.40
2018-05-07T01:22:09.120Z,11.30
2018-05-07T01:24:37.430Z,11.20
2018-05-07T01:27:05.677Z,11.20
2018-05-07T01:29:33.916Z,11.10
2018-05-07T01:32:02.257Z,11.00
2018-05-07T01:34:30.528Z,11.00
2018-05-07T01:36:58.794Z,10.90
2018-05-07T01:39:27.037Z,10.90
2018-05-07T01:41:56.178Z,10.80
2018-05-07T01:44:24.428Z,10.80
2018-05-07T01:46:52.693Z,10.80
2018-05-07T01:49:20.936Z,10.70
2018-05-07T01:51:49.194Z,10.70
2018-05-07T01:54:17.435Z,10.70
2018-05-07T01:56:45.719Z,10.70
2018-05-07T01:59:13.981Z,10.60
2018-05-07T02:01:42.241Z,10.60
2018-05-07T02:04:10.510Z,10.60
2018-05-07T02:06:38.787Z,10.60
2018-05-07T02:09:07.095Z,10.60
2018-05-07T02:11:35.348Z,10.60
2018-05-07T02:14:03.631Z,10.50
2018-05-07T02:16:31.885Z,10.50
2018-05-07T02:19:00.913Z,10.50
2018-05-07T02:21:29.169Z,10.50
2018-05-07T02:23:57.473Z,10.40
2018-05-07T02:26:25.742Z,10.40
2018-05-07T02:28:53.997Z,10.40
2018-05-07T02:31:22.266Z,10.30
2018-05-07T02:33:51.273Z,10.30
2018-05-07T02:36:19.522Z,10.30
2018-05-07T02:38:48.572Z,10.30
2018-05-07T02:41:16.823Z,10.20
2018-05-07T02:43:45.072Z,10.20
2018-05-07T02:46:13.389Z,10.20
2018-05-07T02:48:41.773Z,10.20
2018-05-07T02:51:10.140Z,10.30
2018-05-07T02:53:38.379Z,10.30
2018-05-07T02:56:06.683Z,10.30
2018-05-07T02:58:34.915Z,10.30
2018-05-07T03:01:03.961Z,10.30
2018-05-07T03:03:32.204Z,10.30
2018-05-07T03:06:00.512Z,10.20
2018-05-07T03:08:28.760Z,10.30
2018-05-07T03:10:57.025Z,10.20
2018-05-07T03:13:25.349Z,10.20
2018-05-07T03:15:53.617Z,10.20
2018-05-07T03:18:21.882Z,10.20
2018-05-07T03:20:50.136Z,10.20
2018-05-07T03:23:19.376Z,10.10
2018-05-07T03:25:47.645Z,10.10
2018-05-07T03:28:15.901Z,10.10
2018-05-07T03:30:44.225Z,10.10
2018-05-07T03:33:12.569Z,10.00
2018-05-07T03:35:40.811Z,10.10
2018-05-07T03:38:09.078Z,10.10
2018-05-07T03:40:37.476Z,10.10
2018-05-07T03:43:05.668Z,10.10
2018-05-07T03:45:33.916Z,10.10
2018-05-07T03:48:02.236Z,10.10
2018-05-07T03:50:30.619Z,10.20
2018-05-07T03:52:58.869Z,10.30
2018-05-07T03:55:27.140Z,10.50
2018-05-07T03:57:55.392Z,10.60
2018-05-07T04:00:23.691Z,10.70
2018-05-07T04:02:51.967Z,10.80
2018-05-07T04:05:21.069Z,10.90
2018-05-07T04:07:49.347Z,11.00
2018-05-07T04:10:17.592Z,11.10
2018-05-07T04:12:45.823Z,11.30
2018-05-07T04:15:14.879Z,11.60
2018-05-07T04:17:55.043Z,11.60
2018-05-07T04:20:35.067Z,11.80
2018-05-07T04:23:15.231Z,12.10
2018-05-07T04:25:44.425Z,12.40
2018-05-07T04:28:12.671Z,12.70
2018-05-07T04:30:41.679Z,13.30
2018-05-07T04:33:09.920Z,13.30
2018-05-07T04:35:38.171Z,13.60
2018-05-07T04:38:06.413Z,14.00
2018-05-07T04:40:34.728Z,14.40
2018-05-07T04:43:02.975Z,14.70
2018-05-07T04:45:31.260Z,15.10
2018-05-07T04:47:59.506Z,15.60
2018-05-07T04:50:28.501Z,16.40
2018-05-07T04:52:56.809Z,16.40
2018-05-07T04:55:25.051Z,16.60
2018-05-07T04:57:53.369Z,16.90
2018-05-07T05:00:21.669Z,17.20
2018-05-07T05:02:49.902Z,17.50
2018-05-07T05:05:18.192Z,17.70
2018-05-07T05:07:46.457Z,17.90
2018-05-07T05:10:14.709Z,18.00
2018-05-07T05:12:43.013Z,18.10
2018-05-07T05:15:11.324Z,18.00
2018-05-07T05:17:39.565Z,18.00
2018-05-07T05:20:07.811Z,18.40
2018-05-07T05:22:36.059Z,18.60
2018-05-07T05:25:04.305Z,18.60
2018-05-07T05:27:32.665Z,18.40
2018-05-07T05:30:00.946Z,18.00
2018-05-07T05:32:29.203Z,18.20
2018-05-07T05:34:57.473Z,18.70
2018-05-07T05:37:25.715Z,18.80
2018-05-07T05:39:54.759Z,18.90
2018-05-07T05:42:23.011Z,18.90
2018-05-07T05:44:51.516Z,18.90
2018-05-07T05:47:19.752Z,19.10
2018-05-07T05:49:48.760Z,20.00
2018-05-07T05:52:16.999Z,20.00
2018-05-07T05:54:45.244Z,21.00
2018-05-07T05:57:13.495Z,21.80
2018-05-07T05:59:41.773Z,22.50
2018-05-07T06:02:10.017Z,24.00
2018-05-07T06:04:39.037Z,26.40
2018-05-07T06:07:07.329Z,26.30
2018-05-07T06:09:35.573Z,26.60
2018-05-07T06:12:04.059Z,26.80
2018-05-07T06:14:33.167Z,26.90
2018-05-07T06:17:01.286Z,26.90
2018-05-07T06:19:29.543Z,27.40
2018-05-07T06:21:57.783Z,27.00
2018-05-07T06:24:26.080Z,26.50
2018-05-07T06:26:54.340Z,26.40
2018-05-07T06:29:22.659Z,25.80
2018-05-07T06:31:50.889Z,25.70
2018-05-07T06:34:19.172Z,25.50
2018-05-07T06:36:48.152Z,25.40
2018-05-07T06:39:16.446Z,25.30
2018-05-07T06:41:44.688Z,25.30
2018-05-07T06:44:12.983Z,24.20
2018-05-07T06:46:41.275Z,22.60
2018-05-07T06:49:09.549Z,21.50
2018-05-07T06:51:37.812Z,20.90
2018-05-07T06:54:06.048Z,20.50
2018-05-07T06:56:35.084Z,20.80
2018-05-07T06:59:03.323Z,20.80
2018-05-07T07:01:32.413Z,21.10
2018-05-07T07:04:00.590Z,21.10
2018-05-07T07:06:28.836Z,21.40
2018-05-07T07:08:57.075Z,21.60
2018-05-07T07:11:25.341Z,21.60
2018-05-07T07:13:53.641Z,22.00
2018-05-07T07:16:21.939Z,22.10
2018-05-07T07:18:50.185Z,21.70
2018-05-07T07:21:18.456Z,21.40
2018-05-07T07:23:46.705Z,21.40
2018-05-07T07:26:15.704Z,21.10
2018-05-07T07:28:43.991Z,21.20
2018-05-07T07:31:12.267Z,21.30
2018-05-07T07:33:40.553Z,21.40
2018-05-07T07:36:08.786Z,20.80
2018-05-07T07:38:37.804Z,21.30
2018-05-07T07:41:06.057Z,21.20
2018-05-07T07:43:35.085Z,21.20
2018-05-07T07:46:03.321Z,21.10
2018-05-07T07:48:32.427Z,21.90
2018-05-07T07:51:01.488Z,22.30
2018-05-07T07:53:29.725Z,22.30
2018-05-07T07:55:58.007Z,22.70
2018-05-07T07:58:26.247Z,23.10
2018-05-07T08:00:54.557Z,23.30
2018-05-07T08:03:22.795Z,23.20
2018-05-07T08:05:51.140Z,23.30
2018-05-07T08:08:19.381Z,23.30
2018-05-07T08:10:47.647Z,23.00
2018-05-07T08:13:15.933Z,23.30
2018-05-07T08:15:44.195Z,23.10
2018-05-07T08:18:12.480Z,22.80
2018-05-07T08:20:40.761Z,22.90
2018-05-07T08:23:09.045Z,22.70
2018-05-07T08:25:37.284Z,23.00
2018-05-07T08:28:05.523Z,23.00
2018-05-07T08:30:33.866Z,23.10
2018-05-07T08:33:02.066Z,23.10
2018-05-07T08:35:30.304Z,23.10
2018-05-07T08:37:58.590Z,23.00
2018-05-07T08:40:26.862Z,22.80
2018-05-07T08:42:55.123Z,22.50
2018-05-07T08:45:23.417Z,22.20
2018-05-07T08:47:51.675Z,21.30
2018-05-07T08:50:20.018Z,20.80
2018-05-07T08:52:49.098Z,21.10
2018-05-07T08:55:17.422Z,21.10
2018-05-07T08:57:45.676Z,21.40
2018-05-07T09:00:13.980Z,21.60
2018-05-07T09:02:42.242Z,21.80
2018-05-07T09:05:10.491Z,21.80
2018-05-07T09:07:39.504Z,21.10
2018-05-07T09:10:07.773Z,21.00
2018-05-07T09:12:36.046Z,21.10
2018-05-07T09:15:05.046Z,20.90
2018-05-07T09:17:33.297Z,20.80
2018-05-07T09:20:02.319Z,20.70
2018-05-07T09:22:30.620Z,20.70
2018-05-07T09:24:59.876Z,20.90
2018-05-07T09:27:28.876Z,21.20
2018-05-07T09:29:58.039Z,20.80
2018-05-07T09:32:26.260Z,20.80
2018-05-07T09:34:54.568Z,21.00
2018-05-07T09:37:22.804Z,20.70
2018-05-07T09:39:51.111Z,21.20
2018-05-07T09:42:19.369Z,21.70
2018-05-07T09:44:47.658Z,21.70
2018-05-07T09:47:15.937Z,21.70
2018-05-07T09:49:44.185Z,21.80
2018-05-07T09:52:12.491Z,21.40
2018-05-07T09:54:40.756Z,20.90
2018-05-07T09:57:09.004Z,21.20
2018-05-07T09:59:37.332Z,21.10
2018-05-07T10:02:05.584Z,21.20
2018-05-07T10:04:33.839Z,21.60
2018-05-07T10:07:02.082Z,21.90
2018-05-07T10:09:31.114Z,21.70
2018-05-07T10:11:59.403Z,21.60
2018-05-07T10:14:27.705Z,21.30
2018-05-07T10:16:55.943Z,21.20
2018-05-07T10:19:24.184Z,21.00
2018-05-07T10:21:53.195Z,21.30
2018-05-07T10:24:22.226Z,21.10
2018-05-07T10:26:50.489Z,21.10
2018-05-07T10:29:18.768Z,21.00
2018-05-07T10:31:47.011Z,20.90
2018-05-07T10:34:16.027Z,20.70
2018-05-07T10:36:44.333Z,20.70
2018-05-07T10:39:12.577Z,20.40
2018-05-07T10:41:40.863Z,20.50
2018-05-07T10:44:09.103Z,20.70
2018-05-07T10:46:38.133Z,20.30
2018-05-07T10:49:06.474Z,20.30
2018-05-07T10:51:34.677Z,20.30
2018-05-07T10:54:02.964Z,20.30
2018-05-07T10:56:31.194Z,20.50
2018-05-07T10:59:00.229Z,20.20
2018-05-07T11:01:28.526Z,20.20
2018-05-07T11:03:56.740Z,20.10
2018-05-07T11:06:25.744Z,20.10
2018-05-07T11:08:54.757Z,20.20
2018-05-07T11:11:23.725Z,20.10
2018-05-07T11:13:52.735Z,20.00
2018-05-07T11:16:20.978Z,19.90
2018-05-07T11:18:49.987Z,20.10
2018-05-07T11:21:18.228Z,20.10
2018-05-07T11:23:46.578Z,20.20
2018-05-07T11:26:14.820Z,20.30
2018-05-07T11:28:43.120Z,20.30
2018-05-07T11:31:12.501Z,20.30
2018-05-07T11:33:40.649Z,20.20
2018-05-07T11:36:09.657Z,20.00
2018-05-07T11:38:37.894Z,20.00
2018-05-07T11:41:06.143Z,20.10
2018-05-07T11:43:34.379Z,20.20
2018-05-07T11:46:02.646Z,20.20
2018-05-07T11:48:31.697Z,20.50
2018-05-07T11:50:59.952Z,20.40
2018-05-07T11:53:28.267Z,20.50
2018-05-07T11:55:56.495Z,20.60
2018-05-07T11:58:24.785Z,20.50
2018-05-07T12:00:53.779Z,20.50
2018-05-07T12:03:22.034Z,20.60
2018-05-07T12:05:50.318Z,20.70
2018-05-07T12:08:18.567Z,20.60
2018-05-07T12:10:48.780Z,20.80
2018-05-07T12:13:17.104Z,20.70
2018-05-07T12:15:45.396Z,20.70
2018-05-07T12:18:13.810Z,20.50
2018-05-07T12:20:41.986Z,20.50
2018-05-07T12:23:12.421Z,20.50
2018-05-07T12:25:40.645Z,20.40
2018-05-07T12:28:08.905Z,20.40
2018-05-07T12:30:37.153Z,20.50
2018-05-07T12:33:05.411Z,20.60
2018-05-07T12:35:34.417Z,20.70
2018-05-07T12:38:02.721Z,20.60
2018-05-07T12:40:30.988Z,20.70
2018-05-07T12:42:59.277Z,20.80
2018-05-07T12:45:27.540Z,20.90
2018-05-07T12:47:55.784Z,21.00
2018-05-07T12:50:24.797Z,21.10
2018-05-07T12:52:53.046Z,21.10
2018-05-07T12:55:22.085Z,21.00
2018-05-07T12:57:50.351Z,20.90
2018-05-07T13:00:18.670Z,21.00
2018-05-07T13:02:46.905Z,21.00
2018-05-07T13:05:15.149Z,21.00
2018-05-07T13:07:44.181Z,20.90
2018-05-07T13:10:12.452Z,20.90
2018-05-07T13:12:40.732Z,20.90
2018-05-07T13:15:09.003Z,21.00
2018-05-07T13:17:38.031Z,21.00
2018-05-07T13:20:06.290Z,21.00
2018-05-07T13:22:34.544Z,21.00
2018-05-07T13:25:02.821Z,20.90
2018-05-07T13:27:31.065Z,20.90
2018-05-07T13:30:00.090Z,21.20
2018-05-07T13:32:28.367Z,21.10
2018-05-07T13:34:56.619Z,21.20
2018-05-07T13:37:24.865Z,21.20
2018-05-07T13:39:53.904Z,21.10
2018-05-07T13:42:22.185Z,21.10
2018-05-07T13:44:50.457Z,21.20
2018-05-07T13:47:18.699Z,21.30
2018-05-07T13:49:47.003Z,21.30
2018-05-07T13:52:15.250Z,21.30
2018-05-07T13:54:44.280Z,21.20
2018-05-07T13:57:12.537Z,21.20
2018-05-07T13:59:40.771Z,21.20
2018-05-07T14:02:09.100Z,21.30
2018-05-07T14:04:37.381Z,21.40
2018-05-07T14:07:05.628Z,21.50
2018-05-07T14:09:33.872Z,21.50
2018-05-07T14:12:02.124Z,21.30
2018-05-07T14:14:30.399Z,21.30
2018-05-07T14:16:58.655Z,21.40
2018-05-07T14:19:26.911Z,21.40
2018-05-07T14:21:55.225Z,21.50
2018-05-07T14:24:23.485Z,21.40
2018-05-07T14:26:51.758Z,21.50
2018-05-07T14:29:20.000Z,21.50
2018-05-07T14:31:49.006Z,21.60
2018-05-07T14:34:17.249Z,21.60
2018-05-07T14:36:46.264Z,21.50
2018-05-07T14:39:14.526Z,21.50
2018-05-07T14:41:43.600Z,21.40
2018-05-07T14:44:11.827Z,21.40
2018-05-07T14:46:40.081Z,21.40
2018-05-07T14:49:08.340Z,21.50
2018-05-07T14:51:37.273Z,21.60
2018-05-07T14:54:05.530Z,21.70
2018-05-07T14:56:33.815Z,21.70
2018-05-07T14:59:02.068Z,21.70
2018-05-07T15:01:31.099Z,21.70
2018-05-07T15:03:59.361Z,21.70
2018-05-07T15:06:27.595Z,21.80
2018-05-07T15:08:56.612Z,21.80
2018-05-07T15:11:24.919Z,21.80
2018-05-07T15:14:05.277Z,21.80
2018-05-07T15:16:33.516Z,21.70
2018-05-07T15:19:02.546Z,21.70
2018-05-07T15:21:30.797Z,21.70
2018-05-07T15:23:59.066Z,21.80
2018-05-07T15:26:28.056Z,21.80
2018-05-07T15:28:56.298Z,21.70
2018-05-07T15:31:24.539Z,21.70
2018-05-07T15:33:52.775Z,21.80
2018-05-07T15:36:21.870Z,21.80
2018-05-07T15:38:50.185Z,21.80
2018-05-07T15:41:18.428Z,21.80
2018-05-07T15:43:46.762Z,21.80
2018-05-07T15:46:15.020Z,21.80
2018-05-07T15:48:43.288Z,21.80
2018-05-07T15:51:11.561Z,21.80
2018-05-07T15:53:39.833Z,21.80
2018-05-07T15:56:08.073Z,21.80
2018-05-07T15:58:37.091Z,21.70
2018-05-07T16:01:05.341Z,21.70
2018-05-07T16:03:34.404Z,21.80
2018-05-07T16:06:02.644Z,21.70
2018-05-07T16:08:30.919Z,21.80
2018-05-07T16:10:59.166Z,21.80
2018-05-07T16:13:28.175Z,21.80
2018-05-07T16:15:56.417Z,21.80
2018-05-07T16:18:25.473Z,21.80
2018-05-07T16:20:53.821Z,21.80
2018-05-07T16:23:22.264Z,21.80
2018-05-07T16:25:50.307Z,21.70
2018-05-07T16:28:18.668Z,21.80
2018-05-07T16:30:46.833Z,21.80
2018-05-07T16:33:15.109Z,21.80
2018-05-07T16:35:43.398Z,21.80
2018-05-07T16:38:12.378Z,21.80
2018-05-07T16:40:40.616Z,21.80
2018-05-07T16:43:09.653Z,21.70
2018-05-07T16:45:37.906Z,21.60
2018-05-07T16:48:06.164Z,21.60
2018-05-07T16:50:35.189Z,21.60
2018-05-07T16:53:03.427Z,21.60
2018-05-07T16:55:32.440Z,21.60
2018-05-07T16:58:01.299Z,21.60
2018-05-07T17:00:29.619Z,21.50
2018-05-07T17:02:57.865Z,21.50
2018-05-07T17:05:26.881Z,21.50
2018-05-07T17:07:55.321Z,21.50
2018-05-07T17:10:23.453Z,21.50
2018-05-07T17:12:51.735Z,21.40
2018-05-07T17:15:19.991Z,21.40
2018-05-07T17:17:48.245Z,21.30
2018-05-07T17:20:17.264Z,21.20
2018-05-07T17:22:45.560Z,21.20
2018-05-07T17:25:13.824Z,21.20
2018-05-07T17:27:42.076Z,21.20
2018-05-07T17:30:10.330Z,21.10
2018-05-07T17:32:40.848Z,21.00
2018-05-07T17:35:09.851Z,21.00
2018-05-07T17:37:38.859Z,20.90
2018-05-07T17:40:07.161Z,20.90
2018-05-07T17:42:35.427Z,20.90
2018-05-07T17:45:15.607Z,20.80
2018-05-07T17:47:55.941Z,20.80
2018-05-07T17:50:24.215Z,20.80
2018-05-07T17:52:52.452Z,20.70
2018-05-07T17:55:21.451Z,20.50
2018-05-07T17:57:50.481Z,20.40
2018-05-07T18:00:18.719Z,20.40
2018-05-07T18:02:47.736Z,20.30
2018-05-07T18:05:15.967Z,20.30
2018-05-07T18:07:44.291Z,20.20
2018-05-07T18:10:12.576Z,20.20
2018-05-07T18:12:40.956Z,20.10
2018-05-07T18:15:09.229Z,20.00
2018-05-07T18:17:37.474Z,20.00
2018-05-07T18:20:05.725Z,19.90
2018-05-07T18:22:33.961Z,19.90
2018-05-07T18:25:02.227Z,19.90
2018-05-07T18:27:30.505Z,19.80
2018-05-07T18:29:58.743Z,19.70
2018-05-07T18:32:27.006Z,19.60
2018-05-07T18:34:56.741Z,19.30
2018-05-07T18:37:24.984Z,19.30
2018-05-07T18:39:54.020Z,19.00
2018-05-07T18:42:22.295Z,19.00
2018-05-07T18:44:50.543Z,18.90
2018-05-07T18:47:19.547Z,18.70
2018-05-07T18:49:47.784Z,18.60
2018-05-07T18:52:16.033Z,18.60
2018-05-07T18:54:44.283Z,18.40
2018-05-07T18:57:12.579Z,18.30
2018-05-07T18:59:40.953Z,18.20
2018-05-07T19:02:09.202Z,18.00
2018-05-07T19:04:37.436Z,17.90
2018-05-07T19:07:05.682Z,17.80
2018-05-07T19:09:33.949Z,17.70
2018-05-07T19:12:02.192Z,17.60
2018-05-07T19:14:30.486Z,17.50
2018-05-07T19:16:58.771Z,17.30
2018-05-07T19:19:27.013Z,17.20
2018-05-07T19:21:56.037Z,17.10
2018-05-07T19:24:24.358Z,17.00
2018-05-07T19:26:52.590Z,17.00
2018-05-07T19:29:21.428Z,16.90
2018-05-07T19:31:49.664Z,16.80
2018-05-07T19:34:17.928Z,16.70
2018-05-07T19:36:46.214Z,16.70
2018-05-07T19:39:14.471Z,16.60
2018-05-07T19:41:42.737Z,16.50
2018-05-07T19:44:11.019Z,16.40
2018-05-07T19:46:39.277Z,16.40
2018-05-07T19:49:07.599Z,16.30
2018-05-07T19:51:35.861Z,16.30
2018-05-07T19:54:04.093Z,16.20
2018-05-07T19:56:33.109Z,16.10
2018-05-07T19:59:01.409Z,16.10
2018-05-07T20:01:29.684Z,16.00
2018-05-07T20:03:58.016Z,16.00
2018-05-07T20:06:26.225Z,16.00
2018-05-07T20:08:54.502Z,15.90
2018-05-07T20:11:22.753Z,15.80
2018-05-07T20:13:51.004Z,15.80
2018-05-07T20:16:20.018Z,15.80
2018-05-07T20:18:48.260Z,15.80
2018-05-07T20:21:16.500Z,15.80
2018-05-07T20:23:44.774Z,15.80
2018-05-07T20:26:13.049Z,15.70
2018-05-07T20:28:41.326Z,15.70
2018-05-07T20:31:09.588Z,15.70
2018-05-07T20:33:37.825Z,15.60
2018-05-07T20:36:06.902Z,15.60
2018-05-07T20:38:35.146Z,15.60
2018-05-07T20:41:03.421Z,15.70
2018-05-07T20:43:31.700Z,15.70
2018-05-07T20:45:59.944Z,15.60
2018-05-07T20:48:28.190Z,15.60
2018-05-07T20:50:57.245Z,15.50
2018-05-07T20:53:25.485Z,15.40
2018-05-07T20:55:53.732Z,15.40
2018-05-07T20:58:22.778Z,15.30
2018-05-07T21:00:51.156Z,15.30
2018-05-07T21:03:19.388Z,15.20
2018-05-07T21:05:48.441Z,15.00
2018-05-07T21:08:16.805Z,15.00
2018-05-07T21:10:45.072Z,15.00
2018-05-07T21:13:13.374Z,14.90
2018-05-07T21:15:41.637Z,14.90
2018-05-07T21:18:09.879Z,14.90
2018-05-07T21:20:38.123Z,14.80
2018-05-07T21:23:07.154Z,14.70
2018-05-07T21:25:35.405Z,14.70
2018-05-07T21:28:04.436Z,14.70
2018-05-07T21:30:32.721Z,14.70
2018-05-07T21:33:00.984Z,14.70
2018-05-07T21:35:29.278Z,14.60
2018-05-07T21:37:57.550Z,14.60
2018-05-07T21:40:25.784Z,14.60
2018-05-07T21:42:54.091Z,14.50
2018-05-07T21:45:22.331Z,14.50
2018-05-07T21:47:51.338Z,14.40
2018-05-07T21:50:19.596Z,14.40
2018-05-07T21:52:48.603Z,14.30
2018-05-07T21:55:16.911Z,14.30
2018-05-07T21:57:45.181Z,14.30
2018-05-07T22:00:13.437Z,14.20
2018-05-07T22:02:41.680Z,14.20
2018-05-07T22:05:10.713Z,14.20
2018-05-07T22:07:38.967Z,14.20
2018-05-07T22:10:07.220Z,14.20
2018-05-07T22:12:35.528Z,14.20
2018-05-07T22:15:03.772Z,14.10
2018-05-07T22:17:32.783Z,14.10
2018-05-07T22:20:01.041Z,14.10
2018-05-07T22:22:30.058Z,14.00
2018-05-07T22:24:59.067Z,14.00
2018-05-07T22:27:27.321Z,14.00
2018-05-07T22:29:55.620Z,14.00
2018-05-07T22:32:23.869Z,13.90
2018-05-07T22:34:52.903Z,13.90
2018-05-07T22:37:21.702Z,13.90
2018-05-07T22:39:50.035Z,13.90
2018-05-07T22:42:18.240Z,13.80
2018-05-07T22:44:46.507Z,13.80
2018-05-07T22:47:14.755Z,13.80
2018-05-07T22:49:43.129Z,13.70
2018-05-07T22:52:11.432Z,13.70
2018-05-07T22:54:39.587Z,13.70
2018-05-07T22:57:07.900Z,13.60
2018-05-07T22:59:36.365Z,13.60
2018-05-07T23:02:04.643Z,13.60
2018-05-07T23:04:32.893Z,13.60
2018-05-07T23:07:01.211Z,13.80
2018-05-07T23:09:29.443Z,13.90
2018-05-07T23:11:57.696Z,14.00
2018-05-07T23:14:25.931Z,14.00
2018-05-07T23:16:54.185Z,14.20
2018-05-07T23:19:22.431Z,14.20
2018-05-07T23:21:52.027Z,14.40
2018-05-07T23:24:20.364Z,14.40
2018-05-07T23:26:48.630Z,14.50
2018-05-07T23:29:16.921Z,14.50
2018-05-07T23:31:45.195Z,14.60
2018-05-07T23:34:13.468Z,14.60
2018-05-07T23:36:41.742Z,14.70
2018-05-07T23:39:09.975Z,14.80
2018-05-07T23:41:38.279Z,14.80
2018-05-07T23:44:06.559Z,14.70
2018-05-07T23:46:34.837Z,14.70
2018-05-07T23:49:03.089Z,14.60
2018-05-07T23:51:31.337Z,14.50
2018-05-07T23:54:00.389Z,14.40
2018-05-07T23:56:28.628Z,14.40
2018-05-07T23:58:56.886Z,14.30
